OMA677 OOMS-OEMA
Flight info
| Callsign | OMA677 |
|---|---|
| Flight time | 2h 53m |
| Altitude | 34000 |
| Route | MCT T506 TULBU G652 TOKRA DCT MEDPO DCT BOSOB DCT ITRUX Y511 ELONU |
| Aircraft | B38M/M-SDE1FGHILORVWXY/HB1 |
Departure
| Time | 2026-05-08 12:32 |
|---|---|
| Airport | Muscat International Airport (OOMS) |
Arrival
| Time | 2026-05-08 15:25 |
|---|---|
| Airport | Prince Mohammad Bin Abdulaziz Airport (OEMA) |
| Time | Latitude | Longitude | Altitude | Speed | Heading |
|---|---|---|---|---|---|
| 2026-05-08 12:06 | 23.60337 | 58.28777 | 36 ft | 0 kts | 265° |
| 2026-05-08 12:23 | 23.60338 | 58.28789 | 36 ft | 4 kts | 265° |
| 2026-05-08 12:23 | 23.60340 | 58.28817 | 35 ft | 2 kts | 265° |
| 2026-05-08 12:23 | 23.60339 | 58.28841 | 35 ft | 4 kts | 294° |
| 2026-05-08 12:23 | 23.60322 | 58.28859 | 36 ft | 4 kts | 342° |
| 2026-05-08 12:24 | 23.60304 | 58.28863 | 36 ft | 0 kts | 355° |
| 2026-05-08 12:28 | 23.60306 | 58.28863 | 36 ft | 1 kts | 355° |
| 2026-05-08 12:28 | 23.60342 | 58.28860 | 34 ft | 10 kts | 356° |
| 2026-05-08 12:29 | 23.60446 | 58.28851 | 36 ft | 19 kts | 354° |
| 2026-05-08 12:29 | 23.60568 | 58.28868 | 37 ft | 16 kts | 53° |
| 2026-05-08 12:29 | 23.60586 | 58.28982 | 37 ft | 16 kts | 85° |
| 2026-05-08 12:29 | 23.60596 | 58.29106 | 37 ft | 17 kts | 86° |
| 2026-05-08 12:30 | 23.60608 | 58.29241 | 36 ft | 19 kts | 84° |
| 2026-05-08 12:30 | 23.60622 | 58.29404 | 36 ft | 25 kts | 84° |
| 2026-05-08 12:30 | 23.60656 | 58.29589 | 36 ft | 24 kts | 47° |
| 2026-05-08 12:30 | 23.60788 | 58.29594 | 35 ft | 21 kts | 348° |
| 2026-05-08 12:31 | 23.60895 | 58.29552 | 36 ft | 10 kts | 298° |
| 2026-05-08 12:31 | 23.60891 | 58.29512 | 35 ft | 7 kts | 259° |
| 2026-05-08 12:31 | 23.60883 | 58.29410 | 37 ft | 38 kts | 264° |
| 2026-05-08 12:31 | 23.60835 | 58.28822 | 39 ft | 115 kts | 265° |
| 2026-05-08 12:32 | 23.60743 | 58.27707 | 36 ft | 178 kts | 264° |
| 2026-05-08 12:32 | 23.60638 | 58.26230 | 473 ft | 204 kts | 271° |
| 2026-05-08 12:32 | 23.60510 | 58.24729 | 1403 ft | 197 kts | 265° |
| 2026-05-08 12:32 | 23.60326 | 58.23224 | 1923 ft | 210 kts | 266° |
| 2026-05-08 12:33 | 23.60157 | 58.21567 | 2220 ft | 230 kts | 267° |
| 2026-05-08 12:33 | 23.59998 | 58.19779 | 2333 ft | 239 kts | 268° |
| 2026-05-08 12:33 | 23.59830 | 58.17965 | 3025 ft | 248 kts | 263° |
| 2026-05-08 12:33 | 23.59174 | 58.16156 | 3637 ft | 267 kts | 238° |
| 2026-05-08 12:34 | 23.58045 | 58.14483 | 4367 ft | 279 kts | 236° |
| 2026-05-08 12:34 | 23.56933 | 58.12760 | 5168 ft | 285 kts | 237° |
| 2026-05-08 12:34 | 23.55806 | 58.10982 | 6092 ft | 285 kts | 236° |
| 2026-05-08 12:34 | 23.54683 | 58.09191 | 6992 ft | 286 kts | 236° |
| 2026-05-08 12:35 | 23.53556 | 58.07384 | 7866 ft | 289 kts | 236° |
| 2026-05-08 12:35 | 23.52429 | 58.05569 | 8764 ft | 291 kts | 235° |
| 2026-05-08 12:35 | 23.51293 | 58.03735 | 9654 ft | 292 kts | 234° |
| 2026-05-08 12:35 | 23.50142 | 58.01876 | 10276 ft | 304 kts | 235° |
| 2026-05-08 12:36 | 23.48927 | 57.99909 | 10688 ft | 321 kts | 235° |
| 2026-05-08 12:36 | 23.47655 | 57.97850 | 11252 ft | 331 kts | 234° |
| 2026-05-08 12:36 | 23.46365 | 57.95766 | 12042 ft | 333 kts | 235° |
| 2026-05-08 12:36 | 23.45063 | 57.93667 | 12823 ft | 337 kts | 235° |
| 2026-05-08 12:37 | 23.43748 | 57.91546 | 13614 ft | 338 kts | 234° |
| 2026-05-08 12:37 | 23.42419 | 57.89405 | 14231 ft | 344 kts | 235° |
| 2026-05-08 12:37 | 23.41075 | 57.87242 | 14886 ft | 347 kts | 234° |
| 2026-05-08 12:37 | 23.39715 | 57.85052 | 15463 ft | 352 kts | 234° |
| 2026-05-08 12:38 | 23.38335 | 57.82833 | 16089 ft | 355 kts | 234° |
| 2026-05-08 12:38 | 23.36940 | 57.80590 | 16659 ft | 360 kts | 233° |
| 2026-05-08 12:38 | 23.35527 | 57.78319 | 17211 ft | 364 kts | 233° |
| 2026-05-08 12:38 | 23.34097 | 57.76021 | 17761 ft | 368 kts | 233° |
| 2026-05-08 12:39 | 23.32671 | 57.73731 | 18256 ft | 372 kts | 233° |
| 2026-05-08 12:39 | 23.31211 | 57.71388 | 18706 ft | 375 kts | 234° |
| 2026-05-08 12:39 | 23.29744 | 57.69034 | 19204 ft | 377 kts | 234° |
| 2026-05-08 12:39 | 23.28267 | 57.66667 | 19693 ft | 379 kts | 234° |
| 2026-05-08 12:40 | 23.26782 | 57.64284 | 20154 ft | 382 kts | 234° |
| 2026-05-08 12:40 | 23.25287 | 57.61889 | 20633 ft | 383 kts | 234° |
| 2026-05-08 12:40 | 23.23783 | 57.59480 | 21102 ft | 385 kts | 234° |
| 2026-05-08 12:40 | 23.22275 | 57.57065 | 21575 ft | 388 kts | 234° |
| 2026-05-08 12:41 | 23.20752 | 57.54629 | 22044 ft | 390 kts | 235° |
| 2026-05-08 12:41 | 23.19221 | 57.52181 | 22496 ft | 393 kts | 235° |
| 2026-05-08 12:41 | 23.17683 | 57.49722 | 22949 ft | 395 kts | 235° |
| 2026-05-08 12:41 | 23.16133 | 57.47245 | 23385 ft | 397 kts | 235° |
| 2026-05-08 12:42 | 23.14574 | 57.44757 | 23712 ft | 400 kts | 236° |
| 2026-05-08 12:42 | 23.13003 | 57.42251 | 24093 ft | 402 kts | 236° |
| 2026-05-08 12:42 | 23.11429 | 57.39739 | 24460 ft | 403 kts | 236° |
| 2026-05-08 12:42 | 23.09864 | 57.37244 | 24814 ft | 406 kts | 236° |
| 2026-05-08 12:43 | 23.08274 | 57.34710 | 25176 ft | 407 kts | 236° |
| 2026-05-08 12:43 | 23.06672 | 57.32158 | 25530 ft | 410 kts | 236° |
| 2026-05-08 12:43 | 23.05062 | 57.29595 | 25872 ft | 412 kts | 236° |
| 2026-05-08 12:43 | 23.03446 | 57.27022 | 26229 ft | 413 kts | 236° |
| 2026-05-08 12:44 | 23.01822 | 57.24441 | 26576 ft | 415 kts | 236° |
| 2026-05-08 12:44 | 23.00189 | 57.21846 | 26918 ft | 417 kts | 236° |
| 2026-05-08 12:44 | 22.98547 | 57.19237 | 27271 ft | 419 kts | 236° |
| 2026-05-08 12:44 | 22.96902 | 57.16624 | 27598 ft | 421 kts | 236° |
| 2026-05-08 12:45 | 22.95248 | 57.13998 | 27911 ft | 423 kts | 236° |
| 2026-05-08 12:45 | 22.93583 | 57.11357 | 28249 ft | 424 kts | 236° |
| 2026-05-08 12:45 | 22.91911 | 57.08707 | 28577 ft | 426 kts | 236° |
| 2026-05-08 12:45 | 22.90233 | 57.06047 | 28858 ft | 429 kts | 236° |
| 2026-05-08 12:46 | 22.88543 | 57.03370 | 29157 ft | 431 kts | 236° |
| 2026-05-08 12:46 | 22.86847 | 57.00685 | 29448 ft | 433 kts | 236° |
| 2026-05-08 12:46 | 22.85140 | 56.97985 | 29745 ft | 435 kts | 236° |
| 2026-05-08 12:46 | 22.83425 | 56.95272 | 30000 ft | 437 kts | 236° |
| 2026-05-08 12:47 | 22.81869 | 56.92484 | 30231 ft | 438 kts | 243° |
| 2026-05-08 12:47 | 22.80457 | 56.89554 | 30480 ft | 439 kts | 243° |
| 2026-05-08 12:47 | 22.79036 | 56.86611 | 30722 ft | 441 kts | 243° |
| 2026-05-08 12:47 | 22.77616 | 56.83657 | 30957 ft | 443 kts | 243° |
| 2026-05-08 12:48 | 22.76188 | 56.80686 | 31186 ft | 445 kts | 243° |
| 2026-05-08 12:48 | 22.74758 | 56.77712 | 31429 ft | 446 kts | 243° |
| 2026-05-08 12:48 | 22.73322 | 56.74727 | 31654 ft | 448 kts | 243° |
| 2026-05-08 12:48 | 22.71877 | 56.71725 | 31889 ft | 450 kts | 242° |
| 2026-05-08 12:49 | 22.70426 | 56.68710 | 32102 ft | 451 kts | 242° |
| 2026-05-08 12:49 | 22.68979 | 56.65708 | 32398 ft | 451 kts | 242° |
| 2026-05-08 12:49 | 22.67525 | 56.62692 | 32694 ft | 451 kts | 242° |
| 2026-05-08 12:49 | 22.66089 | 56.59717 | 33008 ft | 450 kts | 242° |
| 2026-05-08 12:50 | 22.64641 | 56.56716 | 33322 ft | 449 kts | 242° |
| 2026-05-08 12:50 | 22.63193 | 56.53719 | 33636 ft | 448 kts | 242° |
| 2026-05-08 12:50 | 22.61748 | 56.50729 | 33799 ft | 449 kts | 242° |
| 2026-05-08 12:50 | 22.60302 | 56.47739 | 33782 ft | 447 kts | 242° |
| 2026-05-08 12:51 | 22.55982 | 56.38815 | 33779 ft | 446 kts | 242° |
| 2026-05-08 12:52 | 22.53107 | 56.32878 | 33779 ft | 446 kts | 242° |
| 2026-05-08 12:52 | 22.48787 | 56.23967 | 33770 ft | 446 kts | 242° |
| 2026-05-08 12:53 | 22.45921 | 56.18064 | 33774 ft | 446 kts | 242° |
| 2026-05-08 12:53 | 22.43016 | 56.12087 | 33773 ft | 446 kts | 242° |
| 2026-05-08 12:54 | 22.40148 | 56.06194 | 33766 ft | 446 kts | 242° |
| 2026-05-08 12:54 | 22.37250 | 56.00261 | 33770 ft | 446 kts | 242° |
| 2026-05-08 12:55 | 22.34345 | 55.94340 | 33770 ft | 446 kts | 242° |
| 2026-05-08 12:55 | 22.31440 | 55.88424 | 33773 ft | 446 kts | 242° |
| 2026-05-08 12:56 | 22.28529 | 55.82503 | 33762 ft | 446 kts | 242° |
| 2026-05-08 12:56 | 22.25614 | 55.76572 | 33759 ft | 446 kts | 242° |
| 2026-05-08 12:57 | 22.22711 | 55.70657 | 33759 ft | 446 kts | 242° |
| 2026-05-08 12:57 | 22.19805 | 55.64745 | 33760 ft | 446 kts | 242° |
| 2026-05-08 12:58 | 22.16952 | 55.58795 | 33748 ft | 446 kts | 248° |
| 2026-05-08 12:58 | 22.16187 | 55.55575 | 33749 ft | 446 kts | 264° |
| 2026-05-08 12:58 | 22.16193 | 55.52270 | 33767 ft | 448 kts | 272° |
| 2026-05-08 12:59 | 22.16626 | 55.45545 | 33755 ft | 450 kts | 273° |
| 2026-05-08 12:59 | 22.17148 | 55.38829 | 33753 ft | 449 kts | 273° |
| 2026-05-08 13:00 | 22.17602 | 55.33242 | 33760 ft | 449 kts | 274° |
| 2026-05-08 13:00 | 22.18149 | 55.26529 | 33759 ft | 449 kts | 273° |
| 2026-05-08 13:01 | 22.18693 | 55.19821 | 33755 ft | 449 kts | 273° |
| 2026-05-08 13:01 | 22.19234 | 55.13113 | 33760 ft | 448 kts | 273° |
| 2026-05-08 13:02 | 22.19772 | 55.06415 | 33760 ft | 448 kts | 273° |
| 2026-05-08 13:02 | 22.20305 | 54.99732 | 33755 ft | 448 kts | 273° |
| 2026-05-08 13:03 | 22.20838 | 54.93028 | 33754 ft | 448 kts | 273° |
| 2026-05-08 13:03 | 22.21368 | 54.86317 | 33751 ft | 448 kts | 273° |
| 2026-05-08 13:04 | 22.21894 | 54.79619 | 33756 ft | 448 kts | 273° |
| 2026-05-08 13:04 | 22.22418 | 54.72916 | 33751 ft | 448 kts | 273° |
| 2026-05-08 13:05 | 22.22936 | 54.66250 | 33753 ft | 448 kts | 273° |
| 2026-05-08 13:05 | 22.23454 | 54.59557 | 33752 ft | 448 kts | 273° |
| 2026-05-08 13:06 | 22.23970 | 54.52848 | 33762 ft | 447 kts | 272° |
| 2026-05-08 13:06 | 22.24482 | 54.46155 | 33759 ft | 447 kts | 272° |
| 2026-05-08 13:07 | 22.24992 | 54.39466 | 33759 ft | 447 kts | 272° |
| 2026-05-08 13:07 | 22.25498 | 54.32772 | 33756 ft | 447 kts | 272° |
| 2026-05-08 13:08 | 22.26000 | 54.26099 | 33762 ft | 446 kts | 272° |
| 2026-05-08 13:08 | 22.26501 | 54.19414 | 33762 ft | 446 kts | 272° |
| 2026-05-08 13:09 | 22.26995 | 54.12778 | 33755 ft | 446 kts | 272° |
| 2026-05-08 13:09 | 22.27489 | 54.06103 | 33763 ft | 446 kts | 272° |
| 2026-05-08 13:10 | 22.27980 | 53.99435 | 33762 ft | 446 kts | 272° |
| 2026-05-08 13:10 | 22.28468 | 53.92764 | 33763 ft | 446 kts | 272° |
| 2026-05-08 13:11 | 22.28954 | 53.86093 | 33765 ft | 445 kts | 272° |
| 2026-05-08 13:11 | 22.29437 | 53.79419 | 33768 ft | 445 kts | 272° |
| 2026-05-08 13:12 | 22.29916 | 53.72763 | 33763 ft | 445 kts | 272° |
| 2026-05-08 13:12 | 22.30390 | 53.66140 | 33766 ft | 444 kts | 272° |
| 2026-05-08 13:13 | 22.30863 | 53.59486 | 33767 ft | 444 kts | 272° |
| 2026-05-08 13:13 | 22.31333 | 53.52844 | 33770 ft | 444 kts | 272° |
| 2026-05-08 13:14 | 22.31801 | 53.46191 | 33767 ft | 443 kts | 272° |
| 2026-05-08 13:14 | 22.32264 | 53.39559 | 33770 ft | 443 kts | 272° |
| 2026-05-08 13:15 | 22.32726 | 53.32920 | 33768 ft | 443 kts | 272° |
| 2026-05-08 13:15 | 22.33184 | 53.26286 | 33775 ft | 443 kts | 272° |
| 2026-05-08 13:16 | 22.33639 | 53.19653 | 33769 ft | 442 kts | 271° |
| 2026-05-08 13:16 | 22.34092 | 53.13021 | 33773 ft | 442 kts | 271° |
| 2026-05-08 13:17 | 22.34538 | 53.06448 | 33773 ft | 442 kts | 271° |
| 2026-05-08 13:17 | 22.34985 | 52.99824 | 33771 ft | 442 kts | 271° |
| 2026-05-08 13:18 | 22.35428 | 52.93212 | 33775 ft | 441 kts | 271° |
| 2026-05-08 13:18 | 22.35869 | 52.86596 | 33774 ft | 441 kts | 271° |
| 2026-05-08 13:19 | 22.36306 | 52.79990 | 33774 ft | 441 kts | 271° |
| 2026-05-08 13:19 | 22.36741 | 52.73381 | 33776 ft | 441 kts | 271° |
| 2026-05-08 13:20 | 22.37173 | 52.66777 | 33776 ft | 441 kts | 271° |
| 2026-05-08 13:20 | 22.37602 | 52.60173 | 33776 ft | 440 kts | 271° |
| 2026-05-08 13:21 | 22.38029 | 52.53569 | 33780 ft | 440 kts | 271° |
| 2026-05-08 13:21 | 22.38452 | 52.46967 | 33777 ft | 440 kts | 271° |
| 2026-05-08 13:22 | 22.38873 | 52.40369 | 33783 ft | 440 kts | 271° |
| 2026-05-08 13:22 | 22.39290 | 52.33813 | 33781 ft | 440 kts | 271° |
| 2026-05-08 13:23 | 22.39706 | 52.27216 | 33779 ft | 440 kts | 271° |
| 2026-05-08 13:23 | 22.40120 | 52.20613 | 33780 ft | 440 kts | 271° |
| 2026-05-08 13:24 | 22.40535 | 52.14020 | 33781 ft | 440 kts | 272° |
| 2026-05-08 13:24 | 22.41083 | 52.07431 | 33783 ft | 440 kts | 272° |
| 2026-05-08 13:25 | 22.41624 | 52.00844 | 33780 ft | 440 kts | 272° |
| 2026-05-08 13:25 | 22.42162 | 51.94255 | 33779 ft | 440 kts | 272° |
| 2026-05-08 13:26 | 22.42696 | 51.87677 | 33783 ft | 439 kts | 272° |
| 2026-05-08 13:26 | 22.43227 | 51.81099 | 33782 ft | 439 kts | 272° |
| 2026-05-08 13:27 | 22.43752 | 51.74563 | 33781 ft | 439 kts | 272° |
| 2026-05-08 13:27 | 22.44279 | 51.67972 | 33784 ft | 439 kts | 272° |
| 2026-05-08 13:28 | 22.44802 | 51.61390 | 33783 ft | 439 kts | 272° |
| 2026-05-08 13:28 | 22.45323 | 51.54813 | 33783 ft | 439 kts | 272° |
| 2026-05-08 13:29 | 22.45841 | 51.48231 | 33789 ft | 440 kts | 272° |
| 2026-05-08 13:29 | 22.46349 | 51.41737 | 33786 ft | 440 kts | 272° |
| 2026-05-08 13:30 | 22.46853 | 51.35274 | 33794 ft | 440 kts | 272° |
| 2026-05-08 13:30 | 22.47363 | 51.28687 | 33786 ft | 440 kts | 272° |
| 2026-05-08 13:31 | 22.47871 | 51.22092 | 33801 ft | 440 kts | 272° |
| 2026-05-08 13:31 | 22.48377 | 51.15501 | 33793 ft | 440 kts | 272° |
| 2026-05-08 13:32 | 22.48876 | 51.08956 | 33785 ft | 440 kts | 271° |
| 2026-05-08 13:32 | 22.49376 | 51.02362 | 33788 ft | 440 kts | 271° |
| 2026-05-08 13:33 | 22.49873 | 50.95767 | 33802 ft | 440 kts | 271° |
| 2026-05-08 13:33 | 22.50368 | 50.89169 | 33784 ft | 440 kts | 271° |
| 2026-05-08 13:34 | 22.50859 | 50.82582 | 33790 ft | 439 kts | 271° |
| 2026-05-08 13:34 | 22.51348 | 50.75992 | 33788 ft | 439 kts | 271° |
| 2026-05-08 13:35 | 22.51831 | 50.69452 | 33804 ft | 439 kts | 271° |
| 2026-05-08 13:35 | 22.52314 | 50.62867 | 33789 ft | 439 kts | 271° |
| 2026-05-08 13:36 | 22.52794 | 50.56281 | 33791 ft | 439 kts | 271° |
| 2026-05-08 13:36 | 22.53272 | 50.49700 | 33799 ft | 439 kts | 271° |
| 2026-05-08 13:37 | 22.53746 | 50.43126 | 33810 ft | 438 kts | 271° |
| 2026-05-08 13:37 | 22.54217 | 50.36556 | 33797 ft | 438 kts | 271° |
| 2026-05-08 13:38 | 22.54686 | 50.29982 | 33796 ft | 438 kts | 270° |
| 2026-05-08 13:38 | 22.55152 | 50.23406 | 33799 ft | 438 kts | 270° |
| 2026-05-08 13:39 | 22.55613 | 50.16874 | 33796 ft | 438 kts | 270° |
| 2026-05-08 13:39 | 22.56073 | 50.10308 | 33798 ft | 438 kts | 270° |
| 2026-05-08 13:40 | 22.56533 | 50.03709 | 33800 ft | 437 kts | 270° |
| 2026-05-08 13:40 | 22.56984 | 49.97191 | 33798 ft | 437 kts | 270° |
| 2026-05-08 13:41 | 22.57435 | 49.90638 | 33799 ft | 436 kts | 270° |
| 2026-05-08 13:41 | 22.57883 | 49.84094 | 33800 ft | 435 kts | 270° |
| 2026-05-08 13:42 | 22.58327 | 49.77568 | 33801 ft | 434 kts | 270° |
| 2026-05-08 13:42 | 22.58768 | 49.71054 | 33804 ft | 434 kts | 270° |
| 2026-05-08 13:43 | 22.59205 | 49.64545 | 33803 ft | 433 kts | 270° |
| 2026-05-08 13:43 | 22.59637 | 49.58084 | 33800 ft | 433 kts | 270° |
| 2026-05-08 13:44 | 22.60068 | 49.51581 | 33804 ft | 433 kts | 270° |
| 2026-05-08 13:44 | 22.60497 | 49.45087 | 33807 ft | 432 kts | 270° |
| 2026-05-08 13:45 | 22.60923 | 49.38591 | 33805 ft | 432 kts | 270° |
| 2026-05-08 13:45 | 22.61346 | 49.32102 | 33805 ft | 432 kts | 270° |
| 2026-05-08 13:46 | 22.61766 | 49.25620 | 33801 ft | 432 kts | 270° |
| 2026-05-08 13:46 | 22.62183 | 49.19144 | 33805 ft | 431 kts | 270° |
| 2026-05-08 13:47 | 22.62594 | 49.12709 | 33807 ft | 431 kts | 269° |
| 2026-05-08 13:47 | 22.63006 | 49.06236 | 33807 ft | 431 kts | 269° |
| 2026-05-08 13:48 | 22.63415 | 48.99766 | 33812 ft | 431 kts | 269° |
| 2026-05-08 13:48 | 22.63820 | 48.93299 | 33806 ft | 430 kts | 269° |
| 2026-05-08 13:49 | 22.64223 | 48.86837 | 33811 ft | 430 kts | 269° |
| 2026-05-08 13:49 | 22.64623 | 48.80382 | 33813 ft | 430 kts | 269° |
| 2026-05-08 13:50 | 22.64953 | 48.75022 | 33815 ft | 429 kts | 269° |
| 2026-05-08 13:50 | 22.65282 | 48.69654 | 33812 ft | 429 kts | 269° |
| 2026-05-08 13:51 | 22.65433 | 48.67177 | 33815 ft | 429 kts | 269° |
| 2026-05-08 13:51 | 22.65824 | 48.60740 | 33818 ft | 428 kts | 269° |
| 2026-05-08 13:52 | 22.66212 | 48.54306 | 33813 ft | 428 kts | 269° |
| 2026-05-08 13:52 | 22.66595 | 48.47909 | 33816 ft | 428 kts | 269° |
| 2026-05-08 13:53 | 22.66978 | 48.41483 | 33813 ft | 427 kts | 269° |
| 2026-05-08 13:53 | 22.67359 | 48.35060 | 33818 ft | 427 kts | 269° |
| 2026-05-08 13:54 | 22.67737 | 48.28645 | 33818 ft | 427 kts | 269° |
| 2026-05-08 13:54 | 22.68112 | 48.22228 | 33819 ft | 427 kts | 269° |
| 2026-05-08 13:55 | 22.68484 | 48.15824 | 33816 ft | 426 kts | 269° |
| 2026-05-08 13:56 | 22.69037 | 48.06219 | 33814 ft | 426 kts | 269° |
| 2026-05-08 13:56 | 22.69541 | 47.99851 | 33819 ft | 427 kts | 270° |
| 2026-05-08 13:57 | 22.70080 | 47.93452 | 33820 ft | 426 kts | 270° |
| 2026-05-08 13:57 | 22.70613 | 47.87056 | 33821 ft | 426 kts | 270° |
| 2026-05-08 13:58 | 22.71143 | 47.80660 | 33825 ft | 426 kts | 270° |
| 2026-05-08 13:58 | 22.71669 | 47.74264 | 33827 ft | 426 kts | 270° |
| 2026-05-08 13:59 | 22.72194 | 47.67873 | 33827 ft | 426 kts | 270° |
| 2026-05-08 13:59 | 22.72715 | 47.61487 | 33834 ft | 425 kts | 270° |
| 2026-05-08 14:00 | 22.73233 | 47.55105 | 33838 ft | 425 kts | 270° |
| 2026-05-08 14:00 | 22.73748 | 47.48727 | 33841 ft | 424 kts | 270° |
| 2026-05-08 14:01 | 22.74259 | 47.42369 | 33844 ft | 423 kts | 270° |
| 2026-05-08 14:01 | 22.74765 | 47.36053 | 33853 ft | 423 kts | 269° |
| 2026-05-08 14:02 | 22.75274 | 47.29661 | 33862 ft | 423 kts | 269° |
| 2026-05-08 14:02 | 22.75777 | 47.23315 | 33861 ft | 423 kts | 269° |
| 2026-05-08 14:03 | 22.76276 | 47.17014 | 33863 ft | 423 kts | 269° |
| 2026-05-08 14:03 | 22.76781 | 47.10669 | 33869 ft | 422 kts | 269° |
| 2026-05-08 14:04 | 22.77284 | 47.04333 | 33870 ft | 422 kts | 269° |
| 2026-05-08 14:04 | 22.77784 | 46.97986 | 33875 ft | 422 kts | 269° |
| 2026-05-08 14:05 | 22.78282 | 46.91648 | 33880 ft | 422 kts | 269° |
| 2026-05-08 14:05 | 22.78777 | 46.85306 | 33881 ft | 422 kts | 269° |
| 2026-05-08 14:06 | 22.79269 | 46.78961 | 33884 ft | 422 kts | 269° |
| 2026-05-08 14:06 | 22.79760 | 46.72621 | 33888 ft | 422 kts | 269° |
| 2026-05-08 14:07 | 22.80247 | 46.66278 | 33891 ft | 422 kts | 269° |
| 2026-05-08 14:07 | 22.80730 | 46.59971 | 33896 ft | 422 kts | 269° |
| 2026-05-08 14:08 | 22.81211 | 46.53639 | 33897 ft | 422 kts | 269° |
| 2026-05-08 14:08 | 22.81691 | 46.47300 | 33906 ft | 421 kts | 269° |
| 2026-05-08 14:09 | 22.82168 | 46.40970 | 33899 ft | 421 kts | 269° |
| 2026-05-08 14:09 | 22.82639 | 46.34643 | 33913 ft | 420 kts | 269° |
| 2026-05-08 14:10 | 22.83106 | 46.28330 | 33906 ft | 420 kts | 269° |
| 2026-05-08 14:10 | 22.83571 | 46.22027 | 33910 ft | 419 kts | 269° |
| 2026-05-08 14:11 | 22.84033 | 46.15720 | 33911 ft | 420 kts | 269° |
| 2026-05-08 14:11 | 22.84493 | 46.09415 | 33899 ft | 419 kts | 269° |
| 2026-05-08 14:12 | 22.84946 | 46.03157 | 33895 ft | 419 kts | 269° |
| 2026-05-08 14:12 | 22.85399 | 45.96867 | 33900 ft | 419 kts | 269° |
| 2026-05-08 14:13 | 22.85850 | 45.90577 | 33891 ft | 418 kts | 269° |
| 2026-05-08 14:13 | 22.86299 | 45.84280 | 33890 ft | 418 kts | 268° |
| 2026-05-08 14:14 | 22.86746 | 45.77988 | 33892 ft | 419 kts | 268° |
| 2026-05-08 14:14 | 22.87189 | 45.71689 | 33893 ft | 419 kts | 268° |
| 2026-05-08 14:15 | 22.87631 | 45.65390 | 33892 ft | 419 kts | 268° |
| 2026-05-08 14:15 | 22.88070 | 45.59089 | 33898 ft | 419 kts | 268° |
| 2026-05-08 14:16 | 22.88507 | 45.52789 | 33897 ft | 419 kts | 268° |
| 2026-05-08 14:16 | 22.88941 | 45.46490 | 33895 ft | 418 kts | 268° |
| 2026-05-08 14:17 | 22.89372 | 45.40197 | 33899 ft | 419 kts | 268° |
| 2026-05-08 14:17 | 22.89798 | 45.33949 | 33898 ft | 418 kts | 268° |
| 2026-05-08 14:18 | 22.90223 | 45.27661 | 33896 ft | 418 kts | 268° |
| 2026-05-08 14:18 | 22.90647 | 45.21376 | 33906 ft | 417 kts | 268° |
| 2026-05-08 14:19 | 22.91068 | 45.15101 | 33900 ft | 418 kts | 268° |
| 2026-05-08 14:19 | 22.91485 | 45.08815 | 33899 ft | 417 kts | 268° |
| 2026-05-08 14:20 | 22.91899 | 45.02530 | 33892 ft | 417 kts | 268° |
| 2026-05-08 14:20 | 22.92312 | 44.96247 | 33912 ft | 418 kts | 268° |
| 2026-05-08 14:21 | 22.92721 | 44.89967 | 33902 ft | 417 kts | 268° |
| 2026-05-08 14:21 | 22.93129 | 44.83679 | 33915 ft | 417 kts | 268° |
| 2026-05-08 14:22 | 22.93531 | 44.77437 | 33913 ft | 417 kts | 268° |
| 2026-05-08 14:22 | 22.93934 | 44.71148 | 33911 ft | 418 kts | 268° |
| 2026-05-08 14:23 | 22.94916 | 44.64898 | 33914 ft | 430 kts | 282° |
| 2026-05-08 14:23 | 22.96788 | 44.58717 | 33913 ft | 432 kts | 281° |
| 2026-05-08 14:24 | 22.98686 | 44.52527 | 33914 ft | 432 kts | 281° |
| 2026-05-08 14:24 | 23.00596 | 44.46330 | 33916 ft | 433 kts | 281° |
| 2026-05-08 14:25 | 23.02506 | 44.40123 | 33918 ft | 434 kts | 281° |
| 2026-05-08 14:25 | 23.04424 | 44.33884 | 33926 ft | 435 kts | 281° |
| 2026-05-08 14:26 | 23.06327 | 44.27684 | 33922 ft | 436 kts | 281° |
| 2026-05-08 14:26 | 23.08240 | 44.21440 | 33928 ft | 435 kts | 281° |
| 2026-05-08 14:27 | 23.10147 | 44.15207 | 33934 ft | 435 kts | 281° |
| 2026-05-08 14:27 | 23.12048 | 44.08979 | 33947 ft | 434 kts | 281° |
| 2026-05-08 14:28 | 23.13946 | 44.02756 | 33943 ft | 432 kts | 281° |
| 2026-05-08 14:28 | 23.15832 | 43.96562 | 33949 ft | 431 kts | 280° |
| 2026-05-08 14:29 | 23.17708 | 43.90391 | 33953 ft | 429 kts | 280° |
| 2026-05-08 14:29 | 23.19575 | 43.84240 | 33964 ft | 428 kts | 280° |
| 2026-05-08 14:30 | 23.21434 | 43.78107 | 33971 ft | 427 kts | 279° |
| 2026-05-08 14:30 | 23.23281 | 43.72003 | 33978 ft | 427 kts | 279° |
| 2026-05-08 14:31 | 23.25132 | 43.65878 | 33987 ft | 426 kts | 279° |
| 2026-05-08 14:31 | 23.26985 | 43.59737 | 33989 ft | 428 kts | 279° |
| 2026-05-08 14:32 | 23.29767 | 43.50495 | 34007 ft | 429 kts | 280° |
| 2026-05-08 14:32 | 23.31622 | 43.44321 | 34013 ft | 430 kts | 280° |
| 2026-05-08 14:33 | 23.33482 | 43.38124 | 34017 ft | 431 kts | 280° |
| 2026-05-08 14:33 | 23.35336 | 43.31935 | 34029 ft | 430 kts | 280° |
| 2026-05-08 14:34 | 23.37179 | 43.25773 | 34031 ft | 431 kts | 280° |
| 2026-05-08 14:34 | 23.39033 | 43.19562 | 34031 ft | 432 kts | 280° |
| 2026-05-08 14:35 | 23.40886 | 43.13342 | 34036 ft | 431 kts | 280° |
| 2026-05-08 14:35 | 23.42726 | 43.07147 | 34052 ft | 430 kts | 280° |
| 2026-05-08 14:36 | 23.44563 | 43.00951 | 34049 ft | 429 kts | 280° |
| 2026-05-08 14:36 | 23.46393 | 42.94767 | 34047 ft | 428 kts | 279° |
| 2026-05-08 14:37 | 23.48216 | 42.88600 | 34053 ft | 427 kts | 279° |
| 2026-05-08 14:37 | 23.49724 | 42.83493 | 34052 ft | 426 kts | 279° |
| 2026-05-08 14:38 | 23.51529 | 42.77366 | 34049 ft | 424 kts | 279° |
| 2026-05-08 14:38 | 23.53330 | 42.71258 | 34051 ft | 423 kts | 279° |
| 2026-05-08 14:39 | 23.55414 | 42.64179 | 34047 ft | 421 kts | 279° |
| 2026-05-08 14:39 | 23.56908 | 42.59096 | 34046 ft | 419 kts | 279° |
| 2026-05-08 14:40 | 23.58685 | 42.53043 | 34038 ft | 418 kts | 279° |
| 2026-05-08 14:40 | 23.60443 | 42.47044 | 34043 ft | 418 kts | 279° |
| 2026-05-08 14:41 | 23.62207 | 42.41013 | 34036 ft | 417 kts | 279° |
| 2026-05-08 14:41 | 23.63970 | 42.34978 | 34037 ft | 417 kts | 279° |
| 2026-05-08 14:42 | 23.65724 | 42.28961 | 34028 ft | 416 kts | 279° |
| 2026-05-08 14:42 | 23.67466 | 42.22957 | 34027 ft | 415 kts | 279° |
| 2026-05-08 14:43 | 23.69203 | 42.16965 | 34025 ft | 414 kts | 279° |
| 2026-05-08 14:43 | 23.70937 | 42.10973 | 34025 ft | 413 kts | 279° |
| 2026-05-08 14:44 | 23.72662 | 42.05002 | 34024 ft | 412 kts | 279° |
| 2026-05-08 14:44 | 23.74384 | 41.99036 | 34023 ft | 411 kts | 279° |
| 2026-05-08 14:45 | 23.76103 | 41.93093 | 34018 ft | 410 kts | 279° |
| 2026-05-08 14:45 | 23.77806 | 41.87192 | 34017 ft | 409 kts | 279° |
| 2026-05-08 14:46 | 23.79508 | 41.81286 | 34004 ft | 403 kts | 279° |
| 2026-05-08 14:46 | 23.80340 | 41.78404 | 33726 ft | 393 kts | 279° |
| 2026-05-08 14:46 | 23.81150 | 41.75585 | 33423 ft | 385 kts | 279° |
| 2026-05-08 14:47 | 23.81944 | 41.72823 | 33062 ft | 379 kts | 280° |
| 2026-05-08 14:47 | 23.82728 | 41.70091 | 32609 ft | 375 kts | 280° |
| 2026-05-08 14:47 | 23.83490 | 41.67439 | 32796 ft | 353 kts | 280° |
| 2026-05-08 14:47 | 23.84202 | 41.64963 | 33109 ft | 333 kts | 279° |
| 2026-05-08 14:48 | 23.84885 | 41.62569 | 33424 ft | 328 kts | 279° |
| 2026-05-08 14:48 | 23.85562 | 41.60198 | 33694 ft | 325 kts | 278° |
| 2026-05-08 14:48 | 23.86232 | 41.57857 | 33267 ft | 324 kts | 279° |
| 2026-05-08 14:48 | 23.86911 | 41.55469 | 32431 ft | 334 kts | 280° |
| 2026-05-08 14:49 | 23.87610 | 41.53008 | 31565 ft | 345 kts | 281° |
| 2026-05-08 14:49 | 23.88330 | 41.50476 | 30739 ft | 355 kts | 282° |
| 2026-05-08 14:49 | 23.89062 | 41.47907 | 30100 ft | 360 kts | 283° |
| 2026-05-08 14:49 | 23.89801 | 41.45304 | 29639 ft | 357 kts | 283° |
| 2026-05-08 14:50 | 23.90532 | 41.42726 | 29143 ft | 355 kts | 283° |
| 2026-05-08 14:50 | 23.91262 | 41.40154 | 28680 ft | 353 kts | 283° |
| 2026-05-08 14:50 | 23.91986 | 41.37597 | 28217 ft | 351 kts | 283° |
| 2026-05-08 14:50 | 23.92708 | 41.35052 | 27764 ft | 349 kts | 283° |
| 2026-05-08 14:51 | 23.93426 | 41.32522 | 27320 ft | 348 kts | 283° |
| 2026-05-08 14:51 | 23.94141 | 41.30003 | 26909 ft | 346 kts | 283° |
| 2026-05-08 14:51 | 23.94850 | 41.27503 | 26486 ft | 344 kts | 284° |
| 2026-05-08 14:51 | 23.95558 | 41.25001 | 26075 ft | 343 kts | 284° |
| 2026-05-08 14:52 | 23.96262 | 41.22513 | 25665 ft | 342 kts | 284° |
| 2026-05-08 14:52 | 23.97656 | 41.17585 | 25033 ft | 336 kts | 284° |
| 2026-05-08 14:52 | 23.98347 | 41.15136 | 25039 ft | 332 kts | 284° |
| 2026-05-08 14:53 | 23.99001 | 41.12818 | 25349 ft | 308 kts | 284° |
| 2026-05-08 14:53 | 23.99627 | 41.10599 | 25615 ft | 305 kts | 284° |
| 2026-05-08 14:53 | 24.00238 | 41.08433 | 25499 ft | 301 kts | 284° |
| 2026-05-08 14:53 | 24.00864 | 41.06214 | 24855 ft | 310 kts | 284° |
| 2026-05-08 14:54 | 24.01509 | 41.03927 | 24157 ft | 321 kts | 284° |
| 2026-05-08 14:54 | 24.02175 | 41.01559 | 23488 ft | 330 kts | 285° |
| 2026-05-08 14:54 | 24.02854 | 40.99144 | 22951 ft | 332 kts | 285° |
| 2026-05-08 14:54 | 24.03532 | 40.96731 | 22547 ft | 331 kts | 285° |
| 2026-05-08 14:55 | 24.04205 | 40.94337 | 22137 ft | 329 kts | 285° |
| 2026-05-08 14:55 | 24.04877 | 40.91945 | 21744 ft | 327 kts | 285° |
| 2026-05-08 14:55 | 24.05541 | 40.89575 | 21366 ft | 326 kts | 285° |
| 2026-05-08 14:55 | 24.06204 | 40.87210 | 20985 ft | 324 kts | 284° |
| 2026-05-08 14:56 | 24.06863 | 40.84858 | 20607 ft | 323 kts | 284° |
| 2026-05-08 14:56 | 24.07518 | 40.82519 | 20251 ft | 321 kts | 284° |
| 2026-05-08 14:56 | 24.08169 | 40.80193 | 19891 ft | 319 kts | 284° |
| 2026-05-08 14:56 | 24.08818 | 40.77873 | 19538 ft | 317 kts | 284° |
| 2026-05-08 14:57 | 24.09463 | 40.75566 | 19188 ft | 316 kts | 284° |
| 2026-05-08 14:57 | 24.10094 | 40.73304 | 18849 ft | 315 kts | 284° |
| 2026-05-08 14:57 | 24.10733 | 40.71015 | 18515 ft | 313 kts | 284° |
| 2026-05-08 14:57 | 24.11366 | 40.68746 | 18151 ft | 312 kts | 284° |
| 2026-05-08 14:58 | 24.11999 | 40.66477 | 17808 ft | 309 kts | 284° |
| 2026-05-08 14:58 | 24.12627 | 40.64224 | 17423 ft | 308 kts | 284° |
| 2026-05-08 14:58 | 24.13248 | 40.61992 | 17064 ft | 306 kts | 284° |
| 2026-05-08 14:58 | 24.13867 | 40.59767 | 16690 ft | 305 kts | 284° |
| 2026-05-08 14:59 | 24.14475 | 40.57581 | 16334 ft | 303 kts | 284° |
| 2026-05-08 14:59 | 24.15692 | 40.53201 | 15928 ft | 301 kts | 284° |
| 2026-05-08 14:59 | 24.16168 | 40.51378 | 15913 ft | 301 kts | 279° |
| 2026-05-08 15:00 | 24.16409 | 40.49137 | 15922 ft | 301 kts | 274° |
| 2026-05-08 15:00 | 24.16644 | 40.46861 | 15914 ft | 301 kts | 275° |
| 2026-05-08 15:00 | 24.16900 | 40.44581 | 15916 ft | 302 kts | 276° |
| 2026-05-08 15:00 | 24.17163 | 40.42312 | 15908 ft | 296 kts | 276° |
| 2026-05-08 15:01 | 24.17424 | 40.40118 | 15800 ft | 286 kts | 276° |
| 2026-05-08 15:01 | 24.17680 | 40.37991 | 15663 ft | 278 kts | 276° |
| 2026-05-08 15:01 | 24.17934 | 40.35905 | 15336 ft | 277 kts | 276° |
| 2026-05-08 15:01 | 24.18187 | 40.33819 | 15018 ft | 276 kts | 276° |
| 2026-05-08 15:02 | 24.18440 | 40.31734 | 14674 ft | 276 kts | 276° |
| 2026-05-08 15:02 | 24.18683 | 40.29745 | 14367 ft | 276 kts | 276° |
| 2026-05-08 15:02 | 24.18943 | 40.27604 | 14023 ft | 276 kts | 276° |
| 2026-05-08 15:02 | 24.19196 | 40.25516 | 13690 ft | 276 kts | 275° |
| 2026-05-08 15:03 | 24.19448 | 40.23436 | 13324 ft | 276 kts | 276° |
| 2026-05-08 15:03 | 24.19700 | 40.21355 | 12969 ft | 275 kts | 275° |
| 2026-05-08 15:03 | 24.19951 | 40.19280 | 12628 ft | 275 kts | 275° |
| 2026-05-08 15:03 | 24.20201 | 40.17207 | 12300 ft | 274 kts | 275° |
| 2026-05-08 15:04 | 24.20451 | 40.15143 | 11980 ft | 273 kts | 275° |
| 2026-05-08 15:04 | 24.20698 | 40.13091 | 11707 ft | 270 kts | 275° |
| 2026-05-08 15:04 | 24.20943 | 40.11058 | 11518 ft | 269 kts | 275° |
| 2026-05-08 15:04 | 24.21187 | 40.09018 | 11494 ft | 270 kts | 275° |
| 2026-05-08 15:05 | 24.21430 | 40.06999 | 11487 ft | 271 kts | 275° |
| 2026-05-08 15:05 | 24.21676 | 40.04953 | 11481 ft | 271 kts | 275° |
| 2026-05-08 15:05 | 24.21920 | 40.02905 | 11482 ft | 271 kts | 275° |
| 2026-05-08 15:05 | 24.22164 | 40.00858 | 11490 ft | 271 kts | 275° |
| 2026-05-08 15:06 | 24.22409 | 39.98812 | 11484 ft | 271 kts | 275° |
| 2026-05-08 15:06 | 24.22654 | 39.96757 | 11487 ft | 271 kts | 274° |
| 2026-05-08 15:06 | 24.22898 | 39.94707 | 11484 ft | 271 kts | 274° |
| 2026-05-08 15:06 | 24.23142 | 39.92659 | 11483 ft | 271 kts | 274° |
| 2026-05-08 15:07 | 24.23590 | 39.90648 | 11465 ft | 276 kts | 294° |
| 2026-05-08 15:07 | 24.24680 | 39.89124 | 11469 ft | 282 kts | 318° |
| 2026-05-08 15:07 | 24.26435 | 39.88132 | 11473 ft | 289 kts | 342° |
| 2026-05-08 15:07 | 24.28421 | 39.87694 | 11498 ft | 291 kts | 346° |
| 2026-05-08 15:08 | 24.30414 | 39.87266 | 11484 ft | 292 kts | 346° |
| 2026-05-08 15:08 | 24.31724 | 39.86988 | 11431 ft | 289 kts | 346° |
| 2026-05-08 15:08 | 24.34086 | 39.86490 | 11028 ft | 290 kts | 347° |
| 2026-05-08 15:08 | 24.35915 | 39.86105 | 10770 ft | 289 kts | 346° |
| 2026-05-08 15:09 | 24.37886 | 39.85690 | 10474 ft | 288 kts | 346° |
| 2026-05-08 15:09 | 24.39828 | 39.85283 | 10173 ft | 288 kts | 346° |
| 2026-05-08 15:09 | 24.41785 | 39.84873 | 9954 ft | 284 kts | 346° |
| 2026-05-08 15:09 | 24.43726 | 39.84465 | 9652 ft | 284 kts | 346° |
| 2026-05-08 15:10 | 24.45655 | 39.84061 | 9356 ft | 282 kts | 346° |
| 2026-05-08 15:10 | 24.47580 | 39.83648 | 9070 ft | 280 kts | 346° |
| 2026-05-08 15:10 | 24.49490 | 39.83237 | 8800 ft | 279 kts | 346° |
| 2026-05-08 15:10 | 24.51381 | 39.82830 | 8551 ft | 276 kts | 346° |
| 2026-05-08 15:11 | 24.53258 | 39.82427 | 8362 ft | 271 kts | 345° |
| 2026-05-08 15:11 | 24.55076 | 39.82036 | 8247 ft | 261 kts | 345° |
| 2026-05-08 15:11 | 24.56830 | 39.81663 | 8114 ft | 252 kts | 345° |
| 2026-05-08 15:11 | 24.58536 | 39.81302 | 8017 ft | 249 kts | 345° |
| 2026-05-08 15:12 | 24.60239 | 39.80940 | 7999 ft | 250 kts | 345° |
| 2026-05-08 15:12 | 24.61950 | 39.80577 | 7977 ft | 250 kts | 345° |
| 2026-05-08 15:12 | 24.63661 | 39.80214 | 7986 ft | 251 kts | 345° |
| 2026-05-08 15:12 | 24.65375 | 39.79851 | 8003 ft | 251 kts | 345° |
| 2026-05-08 15:13 | 24.67082 | 39.79488 | 7983 ft | 251 kts | 345° |
| 2026-05-08 15:13 | 24.68809 | 39.79121 | 7985 ft | 252 kts | 345° |
| 2026-05-08 15:13 | 24.70529 | 39.78756 | 7986 ft | 252 kts | 345° |
| 2026-05-08 15:13 | 24.72223 | 39.78395 | 7988 ft | 251 kts | 345° |
| 2026-05-08 15:14 | 24.73941 | 39.78030 | 7988 ft | 252 kts | 345° |
| 2026-05-08 15:14 | 24.75657 | 39.77667 | 7971 ft | 249 kts | 345° |
| 2026-05-08 15:14 | 24.77344 | 39.77308 | 7705 ft | 251 kts | 345° |
| 2026-05-08 15:14 | 24.79053 | 39.76944 | 7542 ft | 249 kts | 345° |
| 2026-05-08 15:15 | 24.80752 | 39.76582 | 7474 ft | 248 kts | 345° |
| 2026-05-08 15:15 | 24.82446 | 39.76223 | 7442 ft | 248 kts | 344° |
| 2026-05-08 15:15 | 24.84141 | 39.75862 | 7485 ft | 249 kts | 345° |
| 2026-05-08 15:15 | 24.85839 | 39.75499 | 7509 ft | 248 kts | 345° |
| 2026-05-08 15:16 | 24.87531 | 39.75140 | 7494 ft | 248 kts | 344° |
| 2026-05-08 15:16 | 24.89219 | 39.74782 | 7474 ft | 247 kts | 344° |
| 2026-05-08 15:16 | 24.90787 | 39.74105 | 7468 ft | 238 kts | 317° |
| 2026-05-08 15:16 | 24.91811 | 39.72751 | 7494 ft | 229 kts | 290° |
| 2026-05-08 15:17 | 24.92142 | 39.71072 | 7519 ft | 224 kts | 266° |
| 2026-05-08 15:17 | 24.91956 | 39.69369 | 7507 ft | 225 kts | 259° |
| 2026-05-08 15:17 | 24.91694 | 39.67671 | 7483 ft | 224 kts | 258° |
| 2026-05-08 15:17 | 24.91371 | 39.66017 | 7501 ft | 225 kts | 248° |
| 2026-05-08 15:18 | 24.90502 | 39.64628 | 7429 ft | 222 kts | 219° |
| 2026-05-08 15:18 | 24.89092 | 39.63905 | 7117 ft | 228 kts | 191° |
| 2026-05-08 15:18 | 24.87515 | 39.64012 | 6879 ft | 231 kts | 173° |
| 2026-05-08 15:18 | 24.85930 | 39.64338 | 6613 ft | 232 kts | 174° |
| 2026-05-08 15:19 | 24.84341 | 39.64641 | 6394 ft | 231 kts | 174° |
| 2026-05-08 15:19 | 24.82783 | 39.64957 | 6266 ft | 223 kts | 174° |
| 2026-05-08 15:19 | 24.81287 | 39.65274 | 6165 ft | 215 kts | 174° |
| 2026-05-08 15:19 | 24.79859 | 39.65580 | 6160 ft | 205 kts | 174° |
| 2026-05-08 15:20 | 24.78459 | 39.65877 | 6001 ft | 205 kts | 174° |
| 2026-05-08 15:20 | 24.77066 | 39.66175 | 5763 ft | 201 kts | 174° |
| 2026-05-08 15:20 | 24.75703 | 39.66467 | 5514 ft | 197 kts | 174° |
| 2026-05-08 15:20 | 24.74396 | 39.66747 | 5269 ft | 186 kts | 175° |
| 2026-05-08 15:21 | 24.73158 | 39.67012 | 5052 ft | 176 kts | 176° |
| 2026-05-08 15:21 | 24.72021 | 39.67260 | 4870 ft | 157 kts | 178° |
| 2026-05-08 15:21 | 24.70966 | 39.67484 | 4719 ft | 154 kts | 176° |
| 2026-05-08 15:21 | 24.69918 | 39.67704 | 4505 ft | 153 kts | 175° |
| 2026-05-08 15:22 | 24.68874 | 39.67929 | 4304 ft | 153 kts | 175° |
| 2026-05-08 15:22 | 24.67826 | 39.68152 | 4105 ft | 154 kts | 175° |
| 2026-05-08 15:22 | 24.66770 | 39.68379 | 3905 ft | 156 kts | 177° |
| 2026-05-08 15:22 | 24.65704 | 39.68602 | 3712 ft | 156 kts | 175° |
| 2026-05-08 15:23 | 24.64638 | 39.68833 | 3511 ft | 156 kts | 175° |
| 2026-05-08 15:23 | 24.63575 | 39.69060 | 3331 ft | 155 kts | 175° |
| 2026-05-08 15:23 | 24.62511 | 39.69286 | 3158 ft | 158 kts | 172° |
| 2026-05-08 15:23 | 24.61433 | 39.69515 | 2931 ft | 159 kts | 173° |
| 2026-05-08 15:24 | 24.60346 | 39.69749 | 2706 ft | 160 kts | 173° |
| 2026-05-08 15:24 | 24.59272 | 39.69986 | 2508 ft | 155 kts | 173° |
| 2026-05-08 15:24 | 24.58229 | 39.70214 | 2266 ft | 151 kts | 175° |
| 2026-05-08 15:24 | 24.57194 | 39.70431 | 2125 ft | 151 kts | 176° |
| 2026-05-08 15:25 | 24.56453 | 39.70575 | 2117 ft | 132 kts | 176° |
| 2026-05-08 15:25 | 24.55795 | 39.70715 | 2114 ft | 68 kts | 167° |
| 2026-05-08 15:25 | 24.55405 | 39.70820 | 2112 ft | 40 kts | 156° |
| 2026-05-08 15:25 | 24.55294 | 39.70891 | 2112 ft | 11 kts | 146° |
| 2026-05-08 15:26 | 24.55239 | 39.70942 | 2111 ft | 10 kts | 133° |
| 2026-05-08 15:26 | 24.55220 | 39.70966 | 2111 ft | 4 kts | 129° |
| 2026-05-08 15:26 | 24.55214 | 39.70985 | 2111 ft | 5 kts | 99° |
| 2026-05-08 15:26 | 24.55221 | 39.71057 | 2109 ft | 9 kts | 82° |
| 2026-05-08 15:27 | 24.55234 | 39.71138 | 2108 ft | 12 kts | 80° |
| 2026-05-08 15:27 | 24.55240 | 39.71199 | 2107 ft | 5 kts | 99° |
| 2026-05-08 15:27 | 24.55218 | 39.71229 | 2107 ft | 5 kts | 150° |
| 2026-05-08 15:27 | 24.55186 | 39.71240 | 2107 ft | 6 kts | 166° |
| 2026-05-08 15:28 | 24.55174 | 39.71245 | 2107 ft | 0 kts | 137° |
| 2026-05-08 15:28 | 24.55170 | 39.71250 | 2107 ft | 3 kts | 127° |
| 2026-05-08 15:28 | 24.55169 | 39.71273 | 2107 ft | 3 kts | 71° |
| 2026-05-08 15:28 | 24.55177 | 39.71303 | 2107 ft | 5 kts | 79° |
| 2026-05-08 15:29 | 24.55180 | 39.71326 | 2107 ft | 1 kts | 79° |
| 2026-05-08 15:29 | 24.55183 | 39.71337 | 2109 ft | 2 kts | 78° |
| 2026-05-08 15:29 | 24.55184 | 39.71343 | 2109 ft | 0 kts | 78° |